Fulp, North Carolina
Current Conditions -  °F | °C
As of 4:54 AM on Saturday 20 Dec 2014 (Local Time) from KINT Reporting Station
Scattered Clouds Scattered Clouds  
Wind Chill: 37°   Ceiling: Unl
Heat Index: 37°   Visibility: 10mi
Dew Point: 25°   Wind: 3mph
Humidity: 62%   Direction: 20°NNE
Pressure: 30.22"   Gusts: NA
Location:  36.3289°N, 80.1453°W
Report Text: KINT 200954Z AUTO 02003KT 10SM SCT060 03/M04 A3022 RMK AO2 SLP236 T00281039
Loading
Personal Weather Stations






























Interactive Weather Map New forecast layout! Learn more

10-Day Weather Forecast

Advertisements
Track Severe Weather on mobile